Time;durP1;ratioP1;P1;durP2;ratioP2;P2;SDS_P1;SDS_P2;PMS_P1;PMS_P2;Temp;Humidity;BMP_temperature;BMP_pressure;BME280_temperature;BME280_humidity;BME280_pressure;Samples;Min_cycle;Max_cycle;Signal;HPM_P1;HPM_P2
2021/05/15 00:03:48;;;;;;;8.63;5.72;;;15.70;99.90;;;;;;11956817;28;20053;-75
2021/05/15 00:09:35;;;;;;;9.02;5.68;;;15.70;99.90;;;;;;11955919;28;20144;-75
2021/05/15 00:15:22;;;;;;;7.30;4.53;;;15.80;99.90;;;;;;11957910;28;20053;-75
2021/05/15 00:21:09;;;;;;;9.30;3.78;;;15.70;99.90;;;;;;11955472;28;20072;-75
2021/05/15 00:26:57;;;;;;;5.68;3.30;;;15.80;99.90;;;;;;11956126;28;20038;-74
2021/05/15 00:32:43;;;;;;;5.93;3.20;;;15.60;99.90;;;;;;11955730;28;20050;-75
2021/05/15 00:38:30;;;;;;;8.75;3.15;;;15.50;99.90;;;;;;11946213;28;20068;-75
2021/05/15 07:44:34;;;;;;;5.32;1.42;;;12.30;99.90;;;;;;12170044;27;20348;-76
2021/05/15 07:50:21;;;;;;;1.73;1.42;;;12.90;99.90;;;;;;12160380;27;20044;-76
2021/05/15 07:56:07;;;;;;;1.67;1.27;;;13.60;99.90;;;;;;12155429;28;20050;-76
2021/05/15 08:01:55;;;;;;;3.22;2.22;;;14.00;99.90;;;;;;12154656;28;20048;-76
2021/05/15 08:07:41;;;;;;;4.22;1.75;;;14.40;99.90;;;;;;12160702;28;20051;-75
2021/05/15 08:13:30;;;;;;;3.00;2.35;;;14.70;99.90;;;;;;12158372;28;20133;-77
2021/05/15 08:19:18;;;;;;;2.35;1.60;;;15.00;99.90;;;;;;12160573;28;20044;-76
2021/05/15 08:25:07;;;;;;;4.35;1.75;;;15.20;99.90;;;;;;12154080;27;20061;-77
2021/05/15 08:30:54;;;;;;;2.35;1.95;;;15.50;99.90;;;;;;12150478;28;20043;-77
2021/05/15 08:36:41;;;;;;;3.53;2.38;;;15.90;99.90;;;;;;12152400;28;20048;-77
2021/05/15 08:42:29;;;;;;;3.72;2.40;;;16.20;99.90;;;;;;12145456;28;20044;-76
2021/05/15 08:48:16;;;;;;;3.88;1.80;;;16.00;99.90;;;;;;12175335;28;20052;-80
2021/05/15 08:54:07;;;;;;;5.22;1.92;;;16.00;99.90;;;;;;12137551;27;20052;-78
2021/05/15 08:59:53;;;;;;;5.40;1.88;;;16.10;99.90;;;;;;12121879;28;20441;-79
2021/05/15 09:05:42;;;;;;;6.00;2.10;;;16.10;99.90;;;;;;12123201;28;20101;-78
2021/05/15 09:11:29;;;;;;;4.45;1.55;;;16.20;99.90;;;;;;12120735;28;20070;-79
2021/05/15 09:17:15;;;;;;;4.80;2.20;;;16.10;99.90;;;;;;12117690;28;20048;-76
2021/05/15 09:23:22;;;;;;;9.02;1.70;;;16.20;99.90;;;;;;12117908;27;20106;-76
2021/05/15 09:29:09;;;;;;;6.57;1.65;;;16.50;99.90;;;;;;12114638;28;20052;-78
2021/05/15 09:34:56;;;;;;;9.80;2.08;;;16.80;99.90;;;;;;12000846;28;20064;-78
2021/05/15 09:40:43;;;;;;;6.43;1.48;;;16.70;99.90;;;;;;11990468;28;20064;-77
2021/05/15 09:46:32;;;;;;;7.38;1.83;;;16.50;99.90;;;;;;11901651;28;20042;-78
2021/05/15 09:52:21;;;;;;;5.38;1.77;;;16.40;99.90;;;;;;12001194;28;20040;-78
2021/05/15 09:58:08;;;;;;;15.32;3.22;;;16.30;99.90;;;;;;11995200;28;20450;-77
2021/05/15 10:04:02;;;;;;;7.75;1.88;;;16.60;99.90;;;;;;11998094;28;20052;-83
2021/05/15 10:16:04;;;;;;;13.10;2.20;;;16.60;99.90;;;;;;11996389;28;20046;-82
2021/05/15 10:21:52;;;;;;;10.48;2.88;;;16.60;99.90;;;;;;12008139;28;20581;-79
2021/05/15 10:27:38;;;;;;;16.95;2.85;;;16.50;99.90;;;;;;11968625;23;20045;-83
2021/05/15 10:33:30;;;;;;;12.02;2.47;;;16.60;99.90;;;;;;11955279;28;20424;-82
2021/05/15 10:39:27;;;;;;;11.32;3.03;;;16.50;99.90;;;;;;11957363;28;20068;-85
2021/05/15 10:45:43;;;;;;;13.05;3.28;;;16.40;99.90;;;;;;11956389;28;20076;-87
2021/05/15 10:51:38;;;;;;;20.08;3.72;;;16.30;99.90;;;;;;11957863;28;20055;-83
2021/05/15 10:58:07;;;;;;;16.30;3.10;;;16.20;99.90;;;;;;12013343;28;20036;-81
2021/05/15 11:04:27;;;;;;;20.42;3.63;;;16.20;99.90;;;;;;11963079;28;20048;-86
2021/05/15 11:10:17;;;;;;;14.68;2.60;;;16.10;99.90;;;;;;11796421;28;20054;-86
2021/05/15 11:16:07;;;;;;;10.75;2.17;;;15.20;99.90;;;;;;11996826;28;20466;-86
2021/05/15 11:21:54;;;;;;;10.30;2.25;;;14.40;99.90;;;;;;11998357;28;20070;-85
2021/05/15 11:27:45;;;;;;;14.45;2.25;;;14.50;99.90;;;;;;11983174;28;20519;-84
2021/05/15 11:33:39;;;;;;;12.70;2.50;;;14.60;99.90;;;;;;11940897;28;20577;-85
2021/05/15 11:39:57;;;;;;;13.75;3.15;;;14.40;99.90;;;;;;11923075;28;20593;-85
2021/05/15 11:45:54;;;;;;;8.48;2.80;;;14.60;99.90;;;;;;11955041;28;20049;-85
2021/05/15 11:52:29;;;;;;;11.98;2.22;;;15.30;99.90;;;;;;11924837;28;20078;-89
2021/05/15 11:58:16;;;;;;;805.08;562.67;;;15.70;99.90;;;;;;11897878;28;20056;-77
2021/05/15 12:04:06;;;;;;;10.60;3.10;;;16.00;99.90;;;;;;11969505;28;20064;-82
2021/05/15 12:09:53;;;;;;;16.98;3.45;;;16.70;99.90;;;;;;11995318;28;20045;-83
2021/05/15 12:15:46;;;;;;;17.60;3.15;;;16.80;99.90;;;;;;11988244;28;20559;-82
2021/05/15 12:21:33;;;;;;;15.90;3.15;;;16.60;99.90;;;;;;11998162;28;20045;-82
2021/05/15 12:27:25;;;;;;;15.25;2.72;;;16.60;99.90;;;;;;11992108;28;20057;-83
2021/05/15 12:33:16;;;;;;;19.30;2.95;;;16.80;99.90;;;;;;12001457;28;20075;-82
2021/05/15 12:39:06;;;;;;;15.70;2.70;;;17.20;99.90;;;;;;12003913;28;20053;-82
2021/05/15 12:44:53;;;;;;;17.20;3.00;;;17.70;99.90;;;;;;12005088;28;20044;-83
2021/05/15 12:50:40;;;;;;;13.73;2.60;;;17.60;99.90;;;;;;11992470;28;20071;-82
2021/05/15 12:56:31;;;;;;;15.80;2.80;;;17.70;99.90;;;;;;11998631;28;20060;-82
2021/05/15 13:02:19;;;;;;;14.00;2.60;;;17.80;99.90;;;;;;12004100;28;20053;-83
2021/05/15 13:08:08;;;;;;;15.70;2.45;;;18.50;97.60;;;;;;11998428;28;20049;-82
2021/05/15 13:13:56;;;;;;;13.27;2.25;;;18.70;97.30;;;;;;11996255;28;20052;-82
2021/05/15 13:19:42;;;;;;;21.50;2.50;;;18.40;91.70;;;;;;12003829;28;20087;-83
2021/05/15 13:25:30;;;;;;;11.95;2.13;;;18.40;89.70;;;;;;12001849;28;20446;-81
2021/05/15 13:31:16;;;;;;;12.77;1.92;;;18.30;88.20;;;;;;12008465;28;20043;-82
2021/05/15 13:37:03;;;;;;;14.27;2.97;;;18.40;83.30;;;;;;12006843;28;20538;-82
2021/05/15 13:42:50;;;;;;;17.55;2.70;;;16.70;98.80;;;;;;12009754;28;20052;-85
2021/05/15 13:48:38;;;;;;;13.00;2.65;;;14.90;99.90;;;;;;12007231;28;20041;-83
2021/05/15 13:54:25;;;;;;;15.18;2.47;;;15.10;99.90;;;;;;12040023;28;20135;-82
2021/05/15 14:00:13;;;;;;;15.48;2.58;;;16.20;99.90;;;;;;12010231;28;20052;-84
2021/05/15 14:06:01;;;;;;;17.08;3.40;;;16.10;99.90;;;;;;12003936;28;20049;-84
2021/05/15 14:11:47;;;;;;;19.00;2.88;;;16.00;99.90;;;;;;12001958;28;20049;-81
2021/05/15 14:17:35;;;;;;;17.83;6.05;;;16.30;99.90;;;;;;11999265;28;20080;-77
2021/05/15 14:23:21;;;;;;;14.73;2.88;;;16.60;99.90;;;;;;11983462;28;20053;-79
2021/05/15 14:29:08;;;;;;;13.07;2.60;;;16.90;99.90;;;;;;12000294;28;20053;-77
2021/05/15 14:34:55;;;;;;;8.77;2.33;;;17.20;99.90;;;;;;12024931;28;20100;-79
2021/05/15 14:40:42;;;;;;;11.25;2.08;;;17.20;99.90;;;;;;11989566;28;20082;-79
2021/05/15 14:46:28;;;;;;;15.93;2.63;;;17.70;99.90;;;;;;11975835;28;20048;-78
2021/05/15 14:52:16;;;;;;;14.80;3.05;;;18.30;99.90;;;;;;11987741;28;20041;-79
2021/05/15 14:58:02;;;;;;;18.13;3.47;;;18.00;99.90;;;;;;11991556;28;20091;-78
2021/05/15 15:03:49;;;;;;;15.07;2.78;;;17.30;99.90;;;;;;11985677;28;20053;-84
2021/05/15 15:09:36;;;;;;;14.85;2.88;;;16.80;99.90;;;;;;11981381;28;20057;-82
2021/05/15 15:15:34;;;;;;;22.00;3.53;;;16.60;99.90;;;;;;11977979;28;20062;-88
2021/05/15 15:21:21;;;;;;;21.70;3.10;;;16.40;99.90;;;;;;11935116;28;20053;-80
2021/05/15 15:27:08;;;;;;;10.85;3.03;;;16.20;99.90;;;;;;11982345;28;20532;-87
2021/05/15 15:33:11;;;;;;;12.48;2.13;;;15.60;99.90;;;;;;11994346;28;20508;-86
2021/05/15 15:38:58;;;;;;;11.43;2.58;;;15.00;99.90;;;;;;11991887;28;20045;-86
2021/05/15 15:44:45;;;;;;;10.00;2.10;;;15.00;99.90;;;;;;11992841;28;20076;-87
2021/05/15 15:50:31;;;;;;;14.38;3.13;;;15.00;99.90;;;;;;11996773;28;20041;-87
2021/05/15 15:56:18;;;;;;;16.60;2.75;;;14.90;99.90;;;;;;12005091;28;20072;-88
2021/05/15 16:02:06;;;;;;;15.77;3.10;;;15.20;99.90;;;;;;11994633;28;20053;-87
2021/05/15 16:07:52;;;;;;;15.75;2.83;;;15.30;99.90;;;;;;12008435;28;20124;-85
2021/05/15 16:13:41;;;;;;;12.80;2.85;;;15.50;99.90;;;;;;12003944;28;20539;-87
2021/05/15 16:19:33;;;;;;;16.67;2.60;;;15.50;99.90;;;;;;12012641;28;20058;-87
2021/05/15 16:25:20;;;;;;;11.15;1.95;;;15.70;99.90;;;;;;11999678;28;20061;-86
2021/05/15 16:31:08;;;;;;;10.85;2.17;;;15.20;99.90;;;;;;11990669;28;20053;-82
2021/05/15 16:36:55;;;;;;;6.00;1.90;;;15.10;99.90;;;;;;11978447;28;20067;-82
2021/05/15 16:42:42;;;;;;;6.22;1.90;;;15.50;99.90;;;;;;11978438;28;20059;-82
2021/05/15 16:48:34;;;;;;;12.63;1.67;;;15.90;99.90;;;;;;11979074;28;20100;-82
2021/05/15 16:54:23;;;;;;;5.10;1.05;;;16.90;99.90;;;;;;11972057;28;20128;-82
2021/05/15 17:00:11;;;;;;;6.55;1.13;;;20.00;99.90;;;;;;11974873;28;20045;-81
2021/05/15 17:05:57;;;;;;;4.32;1.20;;;19.60;99.90;;;;;;11980238;28;20133;-82
2021/05/15 17:11:45;;;;;;;5.95;0.90;;;19.10;99.90;;;;;;11975836;28;20080;-83
2021/05/15 17:17:32;;;;;;;3.92;0.93;;;18.60;99.90;;;;;;11977901;28;20115;-82
2021/05/15 17:23:19;;;;;;;4.85;1.17;;;19.00;99.90;;;;;;11981681;28;20054;-82
2021/05/15 17:29:07;;;;;;;3.45;1.30;;;21.60;96.10;;;;;;11976827;28;20399;-81
2021/05/15 17:34:55;;;;;;;5.28;1.33;;;23.90;83.20;;;;;;11982566;28;20086;-82
2021/05/15 17:40:45;;;;;;;6.55;1.55;;;25.20;71.40;;;;;;11982477;28;20549;-82
2021/05/15 17:46:32;;;;;;;8.05;1.77;;;26.20;66.80;;;;;;11981398;28;20494;-81
2021/05/15 17:52:18;;;;;;;6.03;1.40;;;26.80;65.20;;;;;;11983796;28;20064;-82
2021/05/15 17:58:05;;;;;;;8.50;1.55;;;27.10;61.40;;;;;;11956740;28;20052;-80
2021/05/15 18:03:53;;;;;;;8.90;1.70;;;27.00;59.60;;;;;;11976423;28;20044;-80
2021/05/15 18:09:39;;;;;;;5.05;1.50;;;26.40;60.10;;;;;;11984816;28;20049;-80
2021/05/15 18:15:26;;;;;;;6.72;1.52;;;26.10;62.20;;;;;;11975705;28;21198;-79
2021/05/15 18:21:14;;;;;;;6.60;1.60;;;24.20;66.00;;;;;;11988086;28;20059;-80
2021/05/15 18:27:03;;;;;;;10.38;1.70;;;22.60;72.30;;;;;;11987420;28;20049;-81
2021/05/15 18:32:49;;;;;;;7.57;1.77;;;21.80;75.70;;;;;;11991503;28;20073;-79
2021/05/15 18:38:36;;;;;;;7.53;1.90;;;20.50;80.90;;;;;;11946781;28;20110;-80
2021/05/15 18:44:23;;;;;;;7.47;1.88;;;19.50;87.10;;;;;;11967516;28;20063;-75
2021/05/15 18:50:10;;;;;;;10.77;1.90;;;18.70;91.60;;;;;;11968795;28;20103;-76
2021/05/15 18:55:57;;;;;;;7.10;2.58;;;18.10;94.10;;;;;;11982372;28;20478;-80
2021/05/15 19:01:44;;;;;;;6.68;1.95;;;17.70;96.70;;;;;;11980001;28;20531;-81
2021/05/15 19:07:30;;;;;;;11.07;2.35;;;17.40;99.60;;;;;;12001534;28;20059;-82
2021/05/15 19:13:18;;;;;;;7.35;1.92;;;17.10;99.90;;;;;;11981510;28;20053;-80
2021/05/15 19:19:04;;;;;;;16.75;2.45;;;16.90;99.90;;;;;;11976201;28;20057;-80
2021/05/15 19:24:51;;;;;;;13.63;2.30;;;17.00;99.90;;;;;;11979600;28;20055;-80
2021/05/15 19:30:38;;;;;;;9.35;1.90;;;16.90;99.90;;;;;;11977707;28;20106;-79
2021/05/15 19:36:25;;;;;;;15.05;3.00;;;16.90;99.90;;;;;;11976643;28;20064;-78
2021/05/15 19:42:11;;;;;;;11.40;2.03;;;16.80;99.90;;;;;;11982210;28;20057;-78
2021/05/15 19:47:58;;;;;;;14.85;2.30;;;16.70;99.90;;;;;;11972565;28;20061;-80
2021/05/15 19:53:46;;;;;;;7.05;1.65;;;16.50;99.90;;;;;;11967630;28;20049;-80
2021/05/15 19:59:34;;;;;;;13.15;1.92;;;16.30;99.90;;;;;;11987764;28;20056;-79
2021/05/15 20:05:21;;;;;;;10.35;1.80;;;16.20;99.90;;;;;;11997669;28;20043;-80
2021/05/15 20:11:08;;;;;;;7.68;1.80;;;16.10;99.90;;;;;;11988861;28;20060;-80
2021/05/15 20:16:54;;;;;;;9.70;2.00;;;16.20;99.90;;;;;;11986031;28;20053;-78
2021/05/15 20:22:41;;;;;;;12.82;2.72;;;16.30;99.90;;;;;;11979591;28;20036;-79
2021/05/15 20:28:29;;;;;;;8.85;1.90;;;16.20;99.90;;;;;;11980562;28;20045;-81
2021/05/15 20:34:15;;;;;;;6.03;2.15;;;16.30;99.90;;;;;;11981899;28;20195;-80
2021/05/15 20:40:05;;;;;;;9.10;1.77;;;16.20;99.90;;;;;;11967808;28;20064;-80
2021/05/15 20:45:51;;;;;;;8.15;2.10;;;16.30;99.90;;;;;;11973591;28;20053;-77
2021/05/15 20:51:38;;;;;;;7.75;1.88;;;16.30;99.90;;;;;;11976053;28;20082;-78
2021/05/15 20:57:25;;;;;;;7.43;1.92;;;16.30;99.90;;;;;;11975369;28;20064;-77
2021/05/15 21:03:12;;;;;;;7.53;1.70;;;16.30;99.90;;;;;;11976459;28;20574;-78
2021/05/15 21:08:59;;;;;;;8.55;1.70;;;16.40;99.90;;;;;;11980808;28;20060;-78
2021/05/15 21:14:47;;;;;;;8.90;1.90;;;16.20;99.90;;;;;;11977395;28;20098;-77
2021/05/15 21:20:34;;;;;;;8.07;1.85;;;16.10;99.90;;;;;;11977114;28;20041;-78
2021/05/15 21:26:20;;;;;;;8.07;1.77;;;16.00;99.90;;;;;;11983991;28;20082;-78
2021/05/15 21:32:08;;;;;;;11.50;2.42;;;16.00;99.90;;;;;;11979971;28;20057;-78
2021/05/15 21:37:54;;;;;;;13.27;2.25;;;16.10;99.90;;;;;;11980259;28;20405;-79
2021/05/15 21:43:41;;;;;;;11.02;2.03;;;16.20;99.90;;;;;;11979172;28;20044;-78
2021/05/15 21:49:28;;;;;;;9.27;2.72;;;16.10;99.90;;;;;;11981975;28;20508;-78
2021/05/15 21:55:15;;;;;;;13.35;2.55;;;16.10;99.90;;;;;;11977360;28;20882;-78
2021/05/15 22:01:04;;;;;;;14.35;2.30;;;16.20;99.90;;;;;;11984746;28;20050;-79
2021/05/15 22:06:51;;;;;;;8.35;2.17;;;16.20;99.90;;;;;;11986592;28;20168;-79
2021/05/15 22:12:38;;;;;;;11.63;2.40;;;16.10;99.90;;;;;;11988745;28;20426;-77
2021/05/15 22:18:24;;;;;;;17.65;2.50;;;15.60;99.90;;;;;;11983330;28;20056;-79
2021/05/15 22:24:12;;;;;;;20.30;3.60;;;15.40;99.90;;;;;;11989481;28;20808;-77
2021/05/15 22:29:58;;;;;;;21.30;3.30;;;15.40;99.90;;;;;;11970412;28;20052;-77
2021/05/15 22:35:47;;;;;;;17.27;3.40;;;15.20;99.90;;;;;;11973907;28;20060;-77
2021/05/15 22:41:34;;;;;;;20.17;3.20;;;15.00;99.90;;;;;;11973924;28;20049;-77
2021/05/15 22:47:20;;;;;;;23.80;4.35;;;14.80;99.90;;;;;;11965415;28;20041;-77
2021/05/15 22:53:09;;;;;;;25.02;3.80;;;14.80;99.90;;;;;;11965966;28;20056;-78
2021/05/15 22:59:00;;;;;;;17.58;2.95;;;14.70;99.90;;;;;;11973486;28;20060;-78
2021/05/15 23:04:46;;;;;;;19.92;3.33;;;14.90;99.90;;;;;;11970774;28;20060;-78
2021/05/15 23:10:33;;;;;;;21.13;3.50;;;14.80;99.90;;;;;;11971395;28;20041;-77
2021/05/15 23:16:28;;;;;;;23.27;3.22;;;14.90;99.90;;;;;;11972331;28;20052;-78
2021/05/15 23:22:15;;;;;;;23.92;3.05;;;15.10;99.90;;;;;;11966656;28;20045;-78
2021/05/15 23:28:01;;;;;;;21.75;2.90;;;15.30;99.90;;;;;;11964061;28;20405;-78
2021/05/15 23:33:49;;;;;;;12.68;3.10;;;15.30;99.90;;;;;;11967222;28;20524;-83
2021/05/15 23:39:35;;;;;;;18.52;2.97;;;15.20;99.90;;;;;;11974705;28;20111;-82
2021/05/15 23:45:23;;;;;;;16.40;3.22;;;15.10;99.90;;;;;;11974439;28;20053;-83
2021/05/15 23:51:11;;;;;;;27.20;4.30;;;15.20;99.90;;;;;;11980211;28;20052;-83
2021/05/15 23:57:00;;;;;;;28.70;3.85;;;15.20;99.90;;;;;;11977813;28;20053;-83
